sensor_id;sensor_type;location;lat;lon;timestamp;temperature;humidity
27534;DHT22;14973;51.460;7.008;2023-08-07T00:02:04;13.20;99.90
27534;DHT22;14973;51.460;7.008;2023-08-07T00:04:29;13.20;99.90
27534;DHT22;14973;51.460;7.008;2023-08-07T00:06:55;13.20;99.90
27534;DHT22;14973;51.460;7.008;2023-08-07T00:09:20;13.10;99.90
27534;DHT22;14973;51.460;7.008;2023-08-07T00:11:46;13.10;99.90
27534;DHT22;14973;51.460;7.008;2023-08-07T00:14:11;13.20;99.90
27534;DHT22;14973;51.460;7.008;2023-08-07T00:16:37;13.20;99.90
27534;DHT22;14973;51.460;7.008;2023-08-07T00:19:03;13.20;99.90
27534;DHT22;14973;51.460;7.008;2023-08-07T00:21:28;13.20;99.90
27534;DHT22;14973;51.460;7.008;2023-08-07T00:23:54;13.20;99.90
27534;DHT22;14973;51.460;7.008;2023-08-07T00:26:20;13.20;99.90
27534;DHT22;14973;51.460;7.008;2023-08-07T00:28:46;13.20;99.90
27534;DHT22;14973;51.460;7.008;2023-08-07T00:31:12;13.30;99.90
27534;DHT22;14973;51.460;7.008;2023-08-07T00:33:38;13.30;99.90
27534;DHT22;14973;51.460;7.008;2023-08-07T00:36:04;13.30;99.90
27534;DHT22;14973;51.460;7.008;2023-08-07T00:38:29;13.30;99.90
27534;DHT22;14973;51.460;7.008;2023-08-07T00:40:55;13.30;99.90
27534;DHT22;14973;51.460;7.008;2023-08-07T00:43:20;13.30;99.90
27534;DHT22;14973;51.460;7.008;2023-08-07T00:45:47;13.30;99.90
27534;DHT22;14973;51.460;7.008;2023-08-07T00:48:13;13.20;99.90
27534;DHT22;14973;51.460;7.008;2023-08-07T00:50:41;13.20;99.90
27534;DHT22;14973;51.460;7.008;2023-08-07T00:53:07;13.20;99.90
27534;DHT22;14973;51.460;7.008;2023-08-07T00:55:33;13.20;99.90
27534;DHT22;14973;51.460;7.008;2023-08-07T00:58:00;13.10;99.90
27534;DHT22;14973;51.460;7.008;2023-08-07T01:00:29;13.20;99.90
27534;DHT22;14973;51.460;7.008;2023-08-07T01:02:56;13.20;99.90
27534;DHT22;14973;51.460;7.008;2023-08-07T01:05:24;13.10;99.90
27534;DHT22;14973;51.460;7.008;2023-08-07T01:07:53;13.10;99.90
27534;DHT22;14973;51.460;7.008;2023-08-07T01:10:28;13.20;99.90
27534;DHT22;14973;51.460;7.008;2023-08-07T01:13:03;13.10;99.90
27534;DHT22;14973;51.460;7.008;2023-08-07T01:15:30;13.10;99.90
27534;DHT22;14973;51.460;7.008;2023-08-07T01:17:57;13.20;99.90
27534;DHT22;14973;51.460;7.008;2023-08-07T01:20:24;13.10;99.90
27534;DHT22;14973;51.460;7.008;2023-08-07T01:22:50;13.10;99.90
27534;DHT22;14973;51.460;7.008;2023-08-07T01:25:16;13.10;99.90
27534;DHT22;14973;51.460;7.008;2023-08-07T01:30:35;13.10;99.90
27534;DHT22;14973;51.460;7.008;2023-08-07T01:33:32;13.00;99.90
27534;DHT22;14973;51.460;7.008;2023-08-07T01:36:01;13.00;99.90
27534;DHT22;14973;51.460;7.008;2023-08-07T01:38:27;13.00;99.90
27534;DHT22;14973;51.460;7.008;2023-08-07T01:40:54;13.00;99.90
27534;DHT22;14973;51.460;7.008;2023-08-07T01:43:20;13.00;99.90
27534;DHT22;14973;51.460;7.008;2023-08-07T01:45:45;13.00;99.90
27534;DHT22;14973;51.460;7.008;2023-08-07T01:48:11;13.00;99.90
27534;DHT22;14973;51.460;7.008;2023-08-07T01:50:38;13.00;99.90
27534;DHT22;14973;51.460;7.008;2023-08-07T01:53:04;13.00;99.90
27534;DHT22;14973;51.460;7.008;2023-08-07T01:55:30;13.00;99.90
27534;DHT22;14973;51.460;7.008;2023-08-07T01:57:55;13.00;99.90
27534;DHT22;14973;51.460;7.008;2023-08-07T02:00:21;13.00;99.90
27534;DHT22;14973;51.460;7.008;2023-08-07T02:02:47;13.00;99.90
27534;DHT22;14973;51.460;7.008;2023-08-07T02:05:13;13.00;99.90
27534;DHT22;14973;51.460;7.008;2023-08-07T02:07:39;13.00;99.90
27534;DHT22;14973;51.460;7.008;2023-08-07T02:10:05;13.00;99.90
27534;DHT22;14973;51.460;7.008;2023-08-07T02:12:31;13.00;99.90
27534;DHT22;14973;51.460;7.008;2023-08-07T02:14:58;13.00;99.90
27534;DHT22;14973;51.460;7.008;2023-08-07T02:17:25;13.00;99.90
27534;DHT22;14973;51.460;7.008;2023-08-07T02:19:51;13.00;99.90
27534;DHT22;14973;51.460;7.008;2023-08-07T02:22:16;12.90;99.90
27534;DHT22;14973;51.460;7.008;2023-08-07T02:24:42;13.00;99.90
27534;DHT22;14973;51.460;7.008;2023-08-07T02:27:07;13.00;99.90
27534;DHT22;14973;51.460;7.008;2023-08-07T02:29:33;13.00;99.90
27534;DHT22;14973;51.460;7.008;2023-08-07T02:32:02;13.00;99.90
27534;DHT22;14973;51.460;7.008;2023-08-07T02:34:30;13.00;99.90
27534;DHT22;14973;51.460;7.008;2023-08-07T02:36:56;13.00;99.90
27534;DHT22;14973;51.460;7.008;2023-08-07T02:39:22;13.00;99.90
27534;DHT22;14973;51.460;7.008;2023-08-07T02:41:48;13.00;99.90
27534;DHT22;14973;51.460;7.008;2023-08-07T02:44:14;13.00;99.90
27534;DHT22;14973;51.460;7.008;2023-08-07T02:46:39;13.00;99.90
27534;DHT22;14973;51.460;7.008;2023-08-07T02:49:05;13.00;99.90
27534;DHT22;14973;51.460;7.008;2023-08-07T02:51:31;13.00;99.90
27534;DHT22;14973;51.460;7.008;2023-08-07T02:53:57;13.00;99.90
27534;DHT22;14973;51.460;7.008;2023-08-07T02:56:22;13.00;99.90
27534;DHT22;14973;51.460;7.008;2023-08-07T02:58:48;13.00;99.90
27534;DHT22;14973;51.460;7.008;2023-08-07T03:01:13;13.00;99.90
27534;DHT22;14973;51.460;7.008;2023-08-07T03:03:39;13.10;99.90
27534;DHT22;14973;51.460;7.008;2023-08-07T03:06:05;13.00;99.90
27534;DHT22;14973;51.460;7.008;2023-08-07T03:08:30;13.00;99.90
27534;DHT22;14973;51.460;7.008;2023-08-07T03:10:57;13.00;99.90
27534;DHT22;14973;51.460;7.008;2023-08-07T03:13:23;13.00;99.90
27534;DHT22;14973;51.460;7.008;2023-08-07T03:15:49;13.10;99.90
27534;DHT22;14973;51.460;7.008;2023-08-07T03:18:16;13.10;99.90
27534;DHT22;14973;51.460;7.008;2023-08-07T03:20:42;13.00;99.90
27534;DHT22;14973;51.460;7.008;2023-08-07T03:23:09;13.00;99.90
27534;DHT22;14973;51.460;7.008;2023-08-07T03:25:34;12.90;99.90
27534;DHT22;14973;51.460;7.008;2023-08-07T03:28:00;13.00;99.90
27534;DHT22;14973;51.460;7.008;2023-08-07T03:30:25;13.00;99.90
27534;DHT22;14973;51.460;7.008;2023-08-07T03:32:51;13.00;99.90
27534;DHT22;14973;51.460;7.008;2023-08-07T03:35:17;13.00;99.90
27534;DHT22;14973;51.460;7.008;2023-08-07T03:37:43;13.00;99.90
27534;DHT22;14973;51.460;7.008;2023-08-07T03:40:09;13.00;99.90
27534;DHT22;14973;51.460;7.008;2023-08-07T03:42:35;13.00;99.90
27534;DHT22;14973;51.460;7.008;2023-08-07T03:45:00;12.90;99.90
27534;DHT22;14973;51.460;7.008;2023-08-07T03:47:26;12.90;99.90
27534;DHT22;14973;51.460;7.008;2023-08-07T03:49:51;12.90;99.90
27534;DHT22;14973;51.460;7.008;2023-08-07T03:52:17;12.90;99.90
27534;DHT22;14973;51.460;7.008;2023-08-07T03:54:43;12.90;99.90
27534;DHT22;14973;51.460;7.008;2023-08-07T03:57:09;12.90;99.90
27534;DHT22;14973;51.460;7.008;2023-08-07T03:59:36;13.00;99.90
27534;DHT22;14973;51.460;7.008;2023-08-07T04:02:02;12.90;99.90
27534;DHT22;14973;51.460;7.008;2023-08-07T04:04:27;13.00;99.90
27534;DHT22;14973;51.460;7.008;2023-08-07T04:06:53;12.90;99.90
27534;DHT22;14973;51.460;7.008;2023-08-07T04:09:20;12.90;99.90
27534;DHT22;14973;51.460;7.008;2023-08-07T04:11:45;13.00;99.90
27534;DHT22;14973;51.460;7.008;2023-08-07T04:14:11;13.00;99.90
27534;DHT22;14973;51.460;7.008;2023-08-07T04:16:36;13.00;99.90
27534;DHT22;14973;51.460;7.008;2023-08-07T04:19:03;13.00;99.90
27534;DHT22;14973;51.460;7.008;2023-08-07T04:21:30;13.10;99.90
27534;DHT22;14973;51.460;7.008;2023-08-07T04:23:55;13.00;99.90
27534;DHT22;14973;51.460;7.008;2023-08-07T04:26:21;12.90;99.90
27534;DHT22;14973;51.460;7.008;2023-08-07T04:28:46;13.00;99.90
27534;DHT22;14973;51.460;7.008;2023-08-07T04:31:12;12.90;99.90
27534;DHT22;14973;51.460;7.008;2023-08-07T04:33:38;12.90;99.90
27534;DHT22;14973;51.460;7.008;2023-08-07T04:36:04;12.90;99.90
27534;DHT22;14973;51.460;7.008;2023-08-07T04:38:29;12.90;99.90
27534;DHT22;14973;51.460;7.008;2023-08-07T04:40:55;12.90;99.90
27534;DHT22;14973;51.460;7.008;2023-08-07T04:43:21;12.90;99.90
27534;DHT22;14973;51.460;7.008;2023-08-07T04:45:46;13.00;99.90
27534;DHT22;14973;51.460;7.008;2023-08-07T04:48:13;12.90;99.90
27534;DHT22;14973;51.460;7.008;2023-08-07T04:50:38;12.90;99.90
27534;DHT22;14973;51.460;7.008;2023-08-07T04:53:04;12.90;99.90
27534;DHT22;14973;51.460;7.008;2023-08-07T04:55:31;13.00;99.90
27534;DHT22;14973;51.460;7.008;2023-08-07T04:57:57;13.00;99.90
27534;DHT22;14973;51.460;7.008;2023-08-07T05:00:23;13.10;99.90
27534;DHT22;14973;51.460;7.008;2023-08-07T05:02:49;13.00;99.90
27534;DHT22;14973;51.460;7.008;2023-08-07T05:05:15;13.00;99.90
27534;DHT22;14973;51.460;7.008;2023-08-07T05:07:41;13.00;99.90
27534;DHT22;14973;51.460;7.008;2023-08-07T05:10:08;13.00;99.90
27534;DHT22;14973;51.460;7.008;2023-08-07T05:12:34;13.00;99.90
27534;DHT22;14973;51.460;7.008;2023-08-07T05:14:59;13.00;99.90
27534;DHT22;14973;51.460;7.008;2023-08-07T05:17:25;13.00;99.90
27534;DHT22;14973;51.460;7.008;2023-08-07T05:19:50;13.00;99.90
27534;DHT22;14973;51.460;7.008;2023-08-07T05:22:16;12.90;99.90
27534;DHT22;14973;51.460;7.008;2023-08-07T05:24:42;12.80;99.90
27534;DHT22;14973;51.460;7.008;2023-08-07T05:27:09;12.90;99.90
27534;DHT22;14973;51.460;7.008;2023-08-07T05:29:35;12.80;99.90
27534;DHT22;14973;51.460;7.008;2023-08-07T05:32:08;12.90;99.90
27534;DHT22;14973;51.460;7.008;2023-08-07T05:34:34;12.90;99.90
27534;DHT22;14973;51.460;7.008;2023-08-07T05:36:59;13.00;99.90
27534;DHT22;14973;51.460;7.008;2023-08-07T05:39:25;13.00;99.90
27534;DHT22;14973;51.460;7.008;2023-08-07T05:41:50;13.10;99.90
27534;DHT22;14973;51.460;7.008;2023-08-07T05:44:19;13.00;99.90
27534;DHT22;14973;51.460;7.008;2023-08-07T05:46:44;13.00;99.90
27534;DHT22;14973;51.460;7.008;2023-08-07T05:49:10;13.00;99.90
27534;DHT22;14973;51.460;7.008;2023-08-07T05:51:35;12.90;99.90
27534;DHT22;14973;51.460;7.008;2023-08-07T05:54:01;12.90;99.90
27534;DHT22;14973;51.460;7.008;2023-08-07T05:56:26;13.00;99.90
27534;DHT22;14973;51.460;7.008;2023-08-07T05:58:52;13.00;99.90
27534;DHT22;14973;51.460;7.008;2023-08-07T06:01:18;13.00;99.90
27534;DHT22;14973;51.460;7.008;2023-08-07T06:03:43;13.00;99.90
27534;DHT22;14973;51.460;7.008;2023-08-07T06:06:09;13.00;99.90
27534;DHT22;14973;51.460;7.008;2023-08-07T06:08:34;12.90;99.90
27534;DHT22;14973;51.460;7.008;2023-08-07T06:11:00;12.90;99.90
27534;DHT22;14973;51.460;7.008;2023-08-07T06:13:30;12.90;99.90
27534;DHT22;14973;51.460;7.008;2023-08-07T06:15:56;13.00;99.90
27534;DHT22;14973;51.460;7.008;2023-08-07T06:18:21;12.90;99.90
27534;DHT22;14973;51.460;7.008;2023-08-07T06:20:47;13.00;99.90
27534;DHT22;14973;51.460;7.008;2023-08-07T06:23:12;13.00;99.90
27534;DHT22;14973;51.460;7.008;2023-08-07T06:25:38;13.00;99.90
27534;DHT22;14973;51.460;7.008;2023-08-07T06:28:04;13.00;99.90
27534;DHT22;14973;51.460;7.008;2023-08-07T06:30:31;13.20;99.90
27534;DHT22;14973;51.460;7.008;2023-08-07T06:32:56;13.20;99.90
27534;DHT22;14973;51.460;7.008;2023-08-07T06:35:22;13.20;99.90
27534;DHT22;14973;51.460;7.008;2023-08-07T06:37:48;13.20;99.90
27534;DHT22;14973;51.460;7.008;2023-08-07T06:40:14;13.30;99.90
27534;DHT22;14973;51.460;7.008;2023-08-07T06:42:39;13.40;99.90
27534;DHT22;14973;51.460;7.008;2023-08-07T06:45:05;13.40;99.90
27534;DHT22;14973;51.460;7.008;2023-08-07T06:47:31;13.40;99.90
27534;DHT22;14973;51.460;7.008;2023-08-07T06:49:57;13.40;99.90
27534;DHT22;14973;51.460;7.008;2023-08-07T06:52:23;13.40;99.90
27534;DHT22;14973;51.460;7.008;2023-08-07T06:54:48;13.40;99.90
27534;DHT22;14973;51.460;7.008;2023-08-07T06:57:14;13.40;99.90
27534;DHT22;14973;51.460;7.008;2023-08-07T06:59:39;13.40;99.90
27534;DHT22;14973;51.460;7.008;2023-08-07T07:02:05;13.30;99.90
27534;DHT22;14973;51.460;7.008;2023-08-07T07:04:31;13.40;99.90
27534;DHT22;14973;51.460;7.008;2023-08-07T07:06:58;13.40;99.90
27534;DHT22;14973;51.460;7.008;2023-08-07T07:09:24;13.40;99.90
27534;DHT22;14973;51.460;7.008;2023-08-07T07:11:49;13.30;99.90
27534;DHT22;14973;51.460;7.008;2023-08-07T07:14:15;13.50;99.90
27534;DHT22;14973;51.460;7.008;2023-08-07T07:16:41;13.50;99.90
27534;DHT22;14973;51.460;7.008;2023-08-07T07:19:07;13.60;99.90
27534;DHT22;14973;51.460;7.008;2023-08-07T07:21:34;13.60;99.90
27534;DHT22;14973;51.460;7.008;2023-08-07T07:24:01;13.60;99.90
27534;DHT22;14973;51.460;7.008;2023-08-07T07:26:27;13.60;99.90
27534;DHT22;14973;51.460;7.008;2023-08-07T07:28:52;13.70;99.90
27534;DHT22;14973;51.460;7.008;2023-08-07T07:31:18;13.60;99.90
27534;DHT22;14973;51.460;7.008;2023-08-07T07:33:43;13.70;99.90
27534;DHT22;14973;51.460;7.008;2023-08-07T07:36:18;13.60;99.90
27534;DHT22;14973;51.460;7.008;2023-08-07T07:38:45;13.70;99.90
27534;DHT22;14973;51.460;7.008;2023-08-07T07:41:13;13.60;99.90
27534;DHT22;14973;51.460;7.008;2023-08-07T07:43:38;13.60;99.90
27534;DHT22;14973;51.460;7.008;2023-08-07T07:46:04;13.70;99.90
27534;DHT22;14973;51.460;7.008;2023-08-07T07:48:30;13.70;99.90
27534;DHT22;14973;51.460;7.008;2023-08-07T07:50:59;13.80;99.90
27534;DHT22;14973;51.460;7.008;2023-08-07T07:53:26;13.90;99.90
27534;DHT22;14973;51.460;7.008;2023-08-07T07:55:52;13.90;99.90
27534;DHT22;14973;51.460;7.008;2023-08-07T07:58:19;13.90;99.90
27534;DHT22;14973;51.460;7.008;2023-08-07T08:00:44;13.80;99.90
27534;DHT22;14973;51.460;7.008;2023-08-07T08:03:10;14.00;99.90
27534;DHT22;14973;51.460;7.008;2023-08-07T08:05:35;14.00;99.90
27534;DHT22;14973;51.460;7.008;2023-08-07T08:08:01;14.10;99.90
27534;DHT22;14973;51.460;7.008;2023-08-07T08:10:27;14.00;99.90
27534;DHT22;14973;51.460;7.008;2023-08-07T08:12:55;14.00;99.90
27534;DHT22;14973;51.460;7.008;2023-08-07T08:15:21;14.00;99.90
27534;DHT22;14973;51.460;7.008;2023-08-07T08:17:47;14.10;99.90
27534;DHT22;14973;51.460;7.008;2023-08-07T08:20:14;14.10;99.90
27534;DHT22;14973;51.460;7.008;2023-08-07T08:22:44;14.20;99.90
27534;DHT22;14973;51.460;7.008;2023-08-07T08:25:10;14.20;99.90
27534;DHT22;14973;51.460;7.008;2023-08-07T08:27:37;14.30;99.90
27534;DHT22;14973;51.460;7.008;2023-08-07T08:30:03;14.40;99.90
27534;DHT22;14973;51.460;7.008;2023-08-07T08:32:29;14.40;99.90
27534;DHT22;14973;51.460;7.008;2023-08-07T08:34:56;14.60;99.90
27534;DHT22;14973;51.460;7.008;2023-08-07T08:37:22;14.60;99.90
27534;DHT22;14973;51.460;7.008;2023-08-07T08:39:48;14.60;99.90
27534;DHT22;14973;51.460;7.008;2023-08-07T08:42:14;14.80;99.90
27534;DHT22;14973;51.460;7.008;2023-08-07T08:44:56;15.00;99.90
27534;DHT22;14973;51.460;7.008;2023-08-07T08:47:24;15.10;99.90
27534;DHT22;14973;51.460;7.008;2023-08-07T08:50:04;15.50;99.90
27534;DHT22;14973;51.460;7.008;2023-08-07T08:52:32;15.60;99.90
27534;DHT22;14973;51.460;7.008;2023-08-07T08:54:58;15.70;99.90
27534;DHT22;14973;51.460;7.008;2023-08-07T08:57:28;15.80;99.90
27534;DHT22;14973;51.460;7.008;2023-08-07T08:59:55;15.90;99.90
27534;DHT22;14973;51.460;7.008;2023-08-07T09:02:21;16.20;99.90
27534;DHT22;14973;51.460;7.008;2023-08-07T09:04:47;16.10;99.90
27534;DHT22;14973;51.460;7.008;2023-08-07T09:07:15;16.20;99.90
27534;DHT22;14973;51.460;7.008;2023-08-07T09:09:41;16.30;99.90
27534;DHT22;14973;51.460;7.008;2023-08-07T09:12:20;16.60;99.90
27534;DHT22;14973;51.460;7.008;2023-08-07T09:14:50;16.90;99.90
27534;DHT22;14973;51.460;7.008;2023-08-07T09:17:18;17.40;99.90
27534;DHT22;14973;51.460;7.008;2023-08-07T09:19:44;17.80;99.90
27534;DHT22;14973;51.460;7.008;2023-08-07T09:22:10;17.70;99.90
27534;DHT22;14973;51.460;7.008;2023-08-07T09:24:35;17.40;99.90
27534;DHT22;14973;51.460;7.008;2023-08-07T09:27:02;17.30;99.90
27534;DHT22;14973;51.460;7.008;2023-08-07T09:29:28;17.60;99.90
27534;DHT22;14973;51.460;7.008;2023-08-07T09:31:54;18.70;99.90
27534;DHT22;14973;51.460;7.008;2023-08-07T09:34:20;20.30;49.20
27534;DHT22;14973;51.460;7.008;2023-08-07T09:36:46;20.90;1.00
27534;DHT22;14973;51.460;7.008;2023-08-07T09:39:12;20.50;1.00
27534;DHT22;14973;51.460;7.008;2023-08-07T09:41:37;19.80;1.00
27534;DHT22;14973;51.460;7.008;2023-08-07T09:44:10;19.10;1.00
27534;DHT22;14973;51.460;7.008;2023-08-07T09:46:45;18.50;1.00
27534;DHT22;14973;51.460;7.008;2023-08-07T09:49:10;17.80;27.50
27534;DHT22;14973;51.460;7.008;2023-08-07T09:51:43;17.00;93.60
27534;DHT22;14973;51.460;7.008;2023-08-07T09:54:09;16.40;99.90
27534;DHT22;14973;51.460;7.008;2023-08-07T09:56:35;16.20;99.90
27534;DHT22;14973;51.460;7.008;2023-08-07T09:59:01;16.10;99.90
27534;DHT22;14973;51.460;7.008;2023-08-07T10:01:27;16.20;99.90
27534;DHT22;14973;51.460;7.008;2023-08-07T10:03:53;16.10;99.90
27534;DHT22;14973;51.460;7.008;2023-08-07T10:06:19;16.10;99.90
27534;DHT22;14973;51.460;7.008;2023-08-07T10:08:45;16.30;99.90
27534;DHT22;14973;51.460;7.008;2023-08-07T10:11:11;16.50;99.90
27534;DHT22;14973;51.460;7.008;2023-08-07T10:13:40;17.00;99.40
27534;DHT22;14973;51.460;7.008;2023-08-07T10:16:06;17.30;63.40
27534;DHT22;14973;51.460;7.008;2023-08-07T10:18:32;17.60;45.20
27534;DHT22;14973;51.460;7.008;2023-08-07T10:20:58;18.20;22.50
27534;DHT22;14973;51.460;7.008;2023-08-07T10:23:25;18.30;1.00
27534;DHT22;14973;51.460;7.008;2023-08-07T10:25:51;18.20;1.00
27534;DHT22;14973;51.460;7.008;2023-08-07T10:28:19;18.00;1.00
27534;DHT22;14973;51.460;7.008;2023-08-07T10:30:45;18.00;30.20
27534;DHT22;14973;51.460;7.008;2023-08-07T10:33:12;18.40;6.60
27534;DHT22;14973;51.460;7.008;2023-08-07T10:35:44;18.60;1.00
27534;DHT22;14973;51.460;7.008;2023-08-07T10:38:10;18.90;1.00
27534;DHT22;14973;51.460;7.008;2023-08-07T10:43:24;19.10;1.00
27534;DHT22;14973;51.460;7.008;2023-08-07T10:45:50;18.80;1.00
27534;DHT22;14973;51.460;7.008;2023-08-07T10:48:21;18.50;1.00
27534;DHT22;14973;51.460;7.008;2023-08-07T10:50:50;18.10;1.00
27534;DHT22;14973;51.460;7.008;2023-08-07T10:53:29;17.90;1.00
27534;DHT22;14973;51.460;7.008;2023-08-07T10:55:55;17.60;1.00
27534;DHT22;14973;51.460;7.008;2023-08-07T10:58:26;17.50;1.00
27534;DHT22;14973;51.460;7.008;2023-08-07T11:01:15;17.60;1.00
27534;DHT22;14973;51.460;7.008;2023-08-07T11:03:40;17.70;1.00
27534;DHT22;14973;51.460;7.008;2023-08-07T11:06:09;18.00;1.00
27534;DHT22;14973;51.460;7.008;2023-08-07T11:08:36;18.50;1.00
27534;DHT22;14973;51.460;7.008;2023-08-07T11:11:08;19.00;99.90
27534;DHT22;14973;51.460;7.008;2023-08-07T11:13:34;19.40;99.90
27534;DHT22;14973;51.460;7.008;2023-08-07T11:16:02;19.80;99.90
27534;DHT22;14973;51.460;7.008;2023-08-07T11:18:28;20.00;1.00
27534;DHT22;14973;51.460;7.008;2023-08-07T11:20:55;20.10;99.90
27534;DHT22;14973;51.460;7.008;2023-08-07T11:23:24;20.30;99.90
27534;DHT22;14973;51.460;7.008;2023-08-07T11:25:51;20.20;1.00
27534;DHT22;14973;51.460;7.008;2023-08-07T11:28:21;20.20;99.90
27534;DHT22;14973;51.460;7.008;2023-08-07T11:30:51;20.30;99.90
27534;DHT22;14973;51.460;7.008;2023-08-07T11:33:18;20.60;1.00
27534;DHT22;14973;51.460;7.008;2023-08-07T11:35:45;20.80;1.00
27534;DHT22;14973;51.460;7.008;2023-08-07T11:38:11;20.90;1.00
27534;DHT22;14973;51.460;7.008;2023-08-07T11:40:37;20.70;1.00
27534;DHT22;14973;51.460;7.008;2023-08-07T11:43:03;19.90;99.90
27534;DHT22;14973;51.460;7.008;2023-08-07T11:45:29;19.70;1.00
27534;DHT22;14973;51.460;7.008;2023-08-07T11:47:55;19.60;99.90
27534;DHT22;14973;51.460;7.008;2023-08-07T11:50:22;19.20;1.00
27534;DHT22;14973;51.460;7.008;2023-08-07T11:52:48;19.00;99.90
27534;DHT22;14973;51.460;7.008;2023-08-07T11:55:14;19.20;99.90
27534;DHT22;14973;51.460;7.008;2023-08-07T11:57:40;19.30;1.00
27534;DHT22;14973;51.460;7.008;2023-08-07T12:00:08;19.60;49.90
27534;DHT22;14973;51.460;7.008;2023-08-07T12:02:41;19.70;1.00
27534;DHT22;14973;51.460;7.008;2023-08-07T12:05:11;20.00;38.80
27534;DHT22;14973;51.460;7.008;2023-08-07T12:07:38;19.90;99.90
27534;DHT22;14973;51.460;7.008;2023-08-07T12:10:07;19.80;99.90
27534;DHT22;14973;51.460;7.008;2023-08-07T12:12:34;19.70;1.00
27534;DHT22;14973;51.460;7.008;2023-08-07T12:15:01;19.80;1.00
27534;DHT22;14973;51.460;7.008;2023-08-07T12:17:26;20.20;99.90
27534;DHT22;14973;51.460;7.008;2023-08-07T12:19:52;20.50;99.90
27534;DHT22;14973;51.460;7.008;2023-08-07T12:22:19;20.60;39.50
27534;DHT22;14973;51.460;7.008;2023-08-07T12:24:45;21.00;20.90
27534;DHT22;14973;51.460;7.008;2023-08-07T12:27:12;21.20;1.00
27534;DHT22;14973;51.460;7.008;2023-08-07T12:29:37;21.00;1.00
27534;DHT22;14973;51.460;7.008;2023-08-07T12:32:03;21.30;1.00
27534;DHT22;14973;51.460;7.008;2023-08-07T12:34:29;21.30;1.00
27534;DHT22;14973;51.460;7.008;2023-08-07T12:36:54;21.30;1.00
27534;DHT22;14973;51.460;7.008;2023-08-07T12:39:20;21.50;1.00
27534;DHT22;14973;51.460;7.008;2023-08-07T12:41:46;21.50;1.00
27534;DHT22;14973;51.460;7.008;2023-08-07T12:44:14;21.40;1.00
27534;DHT22;14973;51.460;7.008;2023-08-07T12:46:40;21.40;1.00
27534;DHT22;14973;51.460;7.008;2023-08-07T12:49:09;21.50;1.00
27534;DHT22;14973;51.460;7.008;2023-08-07T12:51:35;21.40;1.00
27534;DHT22;14973;51.460;7.008;2023-08-07T12:54:00;21.10;1.00
27534;DHT22;14973;51.460;7.008;2023-08-07T12:56:26;20.90;1.00
27534;DHT22;14973;51.460;7.008;2023-08-07T12:58:51;20.40;1.00
27534;DHT22;14973;51.460;7.008;2023-08-07T13:01:17;20.00;99.90
27534;DHT22;14973;51.460;7.008;2023-08-07T13:03:42;19.60;99.90
27534;DHT22;14973;51.460;7.008;2023-08-07T13:06:08;19.20;1.00
27534;DHT22;14973;51.460;7.008;2023-08-07T13:08:34;19.40;99.90
27534;DHT22;14973;51.460;7.008;2023-08-07T13:11:01;19.70;1.00
27534;DHT22;14973;51.460;7.008;2023-08-07T13:13:26;19.70;1.00
27534;DHT22;14973;51.460;7.008;2023-08-07T13:15:53;19.70;99.90
27534;DHT22;14973;51.460;7.008;2023-08-07T13:18:19;19.70;1.00
27534;DHT22;14973;51.460;7.008;2023-08-07T13:20:45;19.70;1.00
27534;DHT22;14973;51.460;7.008;2023-08-07T13:23:11;19.80;1.00
27534;DHT22;14973;51.460;7.008;2023-08-07T13:25:37;19.90;99.90
27534;DHT22;14973;51.460;7.008;2023-08-07T13:28:03;19.90;99.90
27534;DHT22;14973;51.460;7.008;2023-08-07T13:30:32;20.10;99.90
27534;DHT22;14973;51.460;7.008;2023-08-07T13:32:58;20.10;49.60
27534;DHT22;14973;51.460;7.008;2023-08-07T13:35:23;20.00;1.00
27534;DHT22;14973;51.460;7.008;2023-08-07T13:37:49;20.00;13.20
27534;DHT22;14973;51.460;7.008;2023-08-07T13:40:14;20.10;1.70
27534;DHT22;14973;51.460;7.008;2023-08-07T13:42:40;20.10;1.00
27534;DHT22;14973;51.460;7.008;2023-08-07T13:45:06;20.20;1.00
27534;DHT22;14973;51.460;7.008;2023-08-07T13:47:32;20.40;1.00
27534;DHT22;14973;51.460;7.008;2023-08-07T13:49:58;20.50;1.00
27534;DHT22;14973;51.460;7.008;2023-08-07T13:52:24;20.40;1.00
27534;DHT22;14973;51.460;7.008;2023-08-07T13:54:50;20.30;1.00
27534;DHT22;14973;51.460;7.008;2023-08-07T13:57:16;20.20;1.00
27534;DHT22;14973;51.460;7.008;2023-08-07T13:59:42;20.40;1.00
27534;DHT22;14973;51.460;7.008;2023-08-07T14:02:09;20.50;1.00
27534;DHT22;14973;51.460;7.008;2023-08-07T14:04:34;20.80;1.00
27534;DHT22;14973;51.460;7.008;2023-08-07T14:07:01;20.60;1.00
27534;DHT22;14973;51.460;7.008;2023-08-07T14:09:27;20.80;1.00
27534;DHT22;14973;51.460;7.008;2023-08-07T14:11:53;20.80;1.00
27534;DHT22;14973;51.460;7.008;2023-08-07T14:14:19;20.70;1.00
27534;DHT22;14973;51.460;7.008;2023-08-07T14:16:44;20.70;1.00
27534;DHT22;14973;51.460;7.008;2023-08-07T14:19:10;20.70;1.00
27534;DHT22;14973;51.460;7.008;2023-08-07T14:21:36;20.60;1.00
27534;DHT22;14973;51.460;7.008;2023-08-07T14:24:01;20.60;1.00
27534;DHT22;14973;51.460;7.008;2023-08-07T14:26:27;20.60;1.00
27534;DHT22;14973;51.460;7.008;2023-08-07T14:28:52;20.40;1.00
27534;DHT22;14973;51.460;7.008;2023-08-07T14:31:18;20.10;1.00
27534;DHT22;14973;51.460;7.008;2023-08-07T14:33:43;19.90;1.00
27534;DHT22;14973;51.460;7.008;2023-08-07T14:36:09;19.90;1.00
27534;DHT22;14973;51.460;7.008;2023-08-07T14:38:35;20.00;1.00
27534;DHT22;14973;51.460;7.008;2023-08-07T14:41:00;20.30;1.00
27534;DHT22;14973;51.460;7.008;2023-08-07T14:43:30;20.30;1.00
27534;DHT22;14973;51.460;7.008;2023-08-07T14:45:56;20.40;1.00
27534;DHT22;14973;51.460;7.008;2023-08-07T14:48:22;20.60;1.00
27534;DHT22;14973;51.460;7.008;2023-08-07T14:50:47;20.60;1.00
27534;DHT22;14973;51.460;7.008;2023-08-07T14:53:13;20.80;1.00
27534;DHT22;14973;51.460;7.008;2023-08-07T14:55:39;20.90;1.00
27534;DHT22;14973;51.460;7.008;2023-08-07T14:58:04;21.00;1.00
27534;DHT22;14973;51.460;7.008;2023-08-07T15:00:30;20.80;1.00
27534;DHT22;14973;51.460;7.008;2023-08-07T15:02:56;20.90;1.00
27534;DHT22;14973;51.460;7.008;2023-08-07T15:05:25;21.10;1.00
27534;DHT22;14973;51.460;7.008;2023-08-07T15:07:51;21.10;1.00
27534;DHT22;14973;51.460;7.008;2023-08-07T15:10:16;21.20;1.00
27534;DHT22;14973;51.460;7.008;2023-08-07T15:12:42;21.40;1.00
27534;DHT22;14973;51.460;7.008;2023-08-07T15:15:08;21.40;1.00
27534;DHT22;14973;51.460;7.008;2023-08-07T15:17:33;21.30;1.00
27534;DHT22;14973;51.460;7.008;2023-08-07T15:19:59;21.40;1.00
27534;DHT22;14973;51.460;7.008;2023-08-07T15:22:24;21.50;1.00
27534;DHT22;14973;51.460;7.008;2023-08-07T15:24:50;21.40;1.00
27534;DHT22;14973;51.460;7.008;2023-08-07T15:27:15;21.30;1.00
27534;DHT22;14973;51.460;7.008;2023-08-07T15:29:44;21.10;1.00
27534;DHT22;14973;51.460;7.008;2023-08-07T15:32:11;20.80;1.00
27534;DHT22;14973;51.460;7.008;2023-08-07T15:34:39;20.70;1.00
27534;DHT22;14973;51.460;7.008;2023-08-07T15:37:04;20.50;1.00